Time;durP1;ratioP1;P1;durP2;ratioP2;P2;SDS_P1;SDS_P2;PMS_P1;PMS_P2;Temp;Humidity;BMP_temperature;BMP_pressure;BME280_temperature;BME280_humidity;BME280_pressure;Samples;Min_cycle;Max_cycle;Signal;HPM_P1;HPM_P2
2021/07/27 00:00:38;;;;;;;10.67;9.57;;;;;;;;;;5075867;28;20927;-75
2021/07/27 00:03:06;;;;;;;10.57;9.40;;;;;;;;;;5076055;28;20943;-76
2021/07/27 00:05:35;;;;;;;13.20;10.27;;;;;;;;;;5075770;28;20520;-77
2021/07/27 00:08:02;;;;;;;16.90;12.10;;;;;;;;;;5075923;28;20870;-76
2021/07/27 00:10:29;;;;;;;17.07;11.17;;;;;;;;;;5075994;28;20434;-76
2021/07/27 00:12:58;;;;;;;13.90;10.40;;;;;;;;;;5075652;28;20437;-75
2021/07/27 00:15:25;;;;;;;11.87;10.67;;;;;;;;;;5075592;28;20480;-75
2021/07/27 00:17:53;;;;;;;12.87;10.70;;;;;;;;;;5075852;28;20440;-76
2021/07/27 00:20:20;;;;;;;11.77;9.97;;;;;;;;;;5076165;28;20856;-76
2021/07/27 00:22:48;;;;;;;14.73;12.03;;;;;;;;;;5075840;28;20449;-75
2021/07/27 00:25:16;;;;;;;13.43;10.17;;;;;;;;;;5075686;28;20449;-75
2021/07/27 00:27:43;;;;;;;15.20;11.57;;;;;;;;;;5075700;28;20441;-75
2021/07/27 00:30:12;;;;;;;12.80;9.80;;;;;;;;;;5076262;28;20473;-76
2021/07/27 00:32:40;;;;;;;13.47;10.60;;;;;;;;;;5074857;28;20462;-75
2021/07/27 00:35:08;;;;;;;11.00;9.80;;;;;;;;;;5075547;28;20480;-75
2021/07/27 00:37:35;;;;;;;13.73;10.50;;;;;;;;;;5075141;28;20496;-75
2021/07/27 00:40:03;;;;;;;13.97;10.70;;;;;;;;;;5075218;28;20521;-75
2021/07/27 00:42:31;;;;;;;12.67;9.77;;;;;;;;;;5075903;28;20441;-76
2021/07/27 00:44:58;;;;;;;11.27;10.07;;;;;;;;;;5075370;28;20815;-75
2021/07/27 00:47:27;;;;;;;11.20;10.00;;;;;;;;;;5075007;28;20447;-75
2021/07/27 00:49:54;;;;;;;13.80;11.37;;;;;;;;;;5074414;28;20437;-75
2021/07/27 00:52:21;;;;;;;12.50;11.20;;;;;;;;;;5075232;28;20541;-73
2021/07/27 00:54:49;;;;;;;13.87;11.13;;;;;;;;;;5075093;28;20478;-74
2021/07/27 00:57:16;;;;;;;14.27;10.60;;;;;;;;;;5075106;28;20783;-74
2021/07/27 00:59:44;;;;;;;12.77;10.43;;;;;;;;;;5075062;28;20449;-74
2021/07/27 01:02:11;;;;;;;15.33;12.97;;;;;;;;;;5074700;28;20926;-73
2021/07/27 01:04:40;;;;;;;15.40;11.57;;;;;;;;;;5075089;28;20808;-74
2021/07/27 01:07:07;;;;;;;14.87;11.63;;;;;;;;;;5074810;28;20533;-75
2021/07/27 01:09:34;;;;;;;15.77;11.93;;;;;;;;;;5075207;28;20445;-74
2021/07/27 01:12:02;;;;;;;15.93;12.00;;;;;;;;;;5074845;28;20465;-74
2021/07/27 01:14:29;;;;;;;13.80;11.83;;;;;;;;;;5074906;28;20515;-75
2021/07/27 01:16:56;;;;;;;17.07;11.47;;;;;;;;;;5074631;28;20437;-74
2021/07/27 01:19:37;;;;;;;14.60;12.23;;;;;;;;;;5074942;28;20450;-76
2021/07/27 01:39:03;;;;;;;19.33;15.33;;;;;;;;;;5074326;28;20465;-74
2021/07/27 01:44:30;;;;;;;22.70;15.77;;;;;;;;;;5074106;28;20487;-75
2021/07/27 01:46:57;;;;;;;16.20;13.67;;;;;;;;;;5072766;28;20449;-75
2021/07/27 01:49:24;;;;;;;19.03;15.90;;;;;;;;;;5073836;28;20851;-75
2021/07/27 01:51:53;;;;;;;18.87;14.20;;;;;;;;;;5074059;28;20442;-76
2021/07/27 01:54:29;;;;;;;21.00;13.30;;;;;;;;;;5074204;28;20486;-75
2021/07/27 01:56:56;;;;;;;17.83;13.83;;;;;;;;;;5074810;28;20472;-75
2021/07/27 01:59:24;;;;;;;21.30;14.40;;;;;;;;;;5073828;28;20520;-74
2021/07/27 02:01:51;;;;;;;18.20;14.47;;;;;;;;;;5074496;28;20532;-75
2021/07/27 02:04:18;;;;;;;24.00;14.93;;;;;;;;;;5073931;28;20447;-75
2021/07/27 02:06:46;;;;;;;20.43;15.07;;;;;;;;;;5073418;28;20445;-74
2021/07/27 02:09:14;;;;;;;20.97;13.90;;;;;;;;;;5073888;28;20565;-74
2021/07/27 02:11:46;;;;;;;19.90;14.70;;;;;;;;;;5073518;28;20460;-75
2021/07/27 02:14:16;;;;;;;21.33;14.30;;;;;;;;;;5074008;28;20559;-75
2021/07/27 02:16:43;;;;;;;18.30;14.30;;;;;;;;;;5073952;28;20531;-76
2021/07/27 02:19:10;;;;;;;22.87;15.00;;;;;;;;;;5073764;28;20801;-75
2021/07/27 02:21:38;;;;;;;23.73;14.80;;;;;;;;;;5073460;28;20935;-74
2021/07/27 02:24:05;;;;;;;22.33;14.87;;;;;;;;;;5073675;28;20546;-76
2021/07/27 02:26:32;;;;;;;21.67;16.40;;;;;;;;;;5073533;28;20453;-76
2021/07/27 02:29:01;;;;;;;20.93;15.13;;;;;;;;;;5073665;28;20872;-75
2021/07/27 02:31:32;;;;;;;25.00;16.00;;;;;;;;;;5073615;28;20449;-75
2021/07/27 02:33:59;;;;;;;23.17;17.30;;;;;;;;;;5073272;28;20442;-74
2021/07/27 02:36:27;;;;;;;18.17;15.80;;;;;;;;;;5073445;28;20437;-74
2021/07/27 02:38:54;;;;;;;22.73;17.00;;;;;;;;;;5073823;28;20823;-74
2021/07/27 02:41:34;;;;;;;22.17;16.10;;;;;;;;;;5073130;28;20533;-75
2021/07/27 02:44:04;;;;;;;22.47;15.60;;;;;;;;;;5073519;28;20449;-75
2021/07/27 02:46:32;;;;;;;22.40;17.67;;;;;;;;;;5073883;28;20499;-75
2021/07/27 02:49:02;;;;;;;27.73;18.90;;;;;;;;;;5073529;28;20887;-75
2021/07/27 02:51:29;;;;;;;23.47;17.80;;;;;;;;;;5073149;28;20472;-76
2021/07/27 02:53:57;;;;;;;27.07;18.87;;;;;;;;;;5073332;28;20468;-76
2021/07/27 02:56:24;;;;;;;28.13;18.60;;;;;;;;;;5073046;28;20810;-76
2021/07/27 02:58:51;;;;;;;29.50;19.40;;;;;;;;;;5073414;28;20536;-75
2021/07/27 03:01:20;;;;;;;29.00;18.80;;;;;;;;;;5073004;28;20441;-76
2021/07/27 03:03:50;;;;;;;26.80;19.23;;;;;;;;;;5072988;28;20536;-76
2021/07/27 03:06:19;;;;;;;27.43;17.60;;;;;;;;;;5073164;28;20480;-76
2021/07/27 03:08:50;;;;;;;27.43;19.90;;;;;;;;;;5073547;28;20464;-76
2021/07/27 03:11:18;;;;;;;24.97;19.67;;;;;;;;;;5073082;28;20978;-76
2021/07/27 03:13:45;;;;;;;26.93;19.83;;;;;;;;;;5077514;28;20439;-76
2021/07/27 03:16:16;;;;;;;30.63;20.10;;;;;;;;;;5077479;28;20900;-76
2021/07/27 03:18:45;;;;;;;30.87;21.23;;;;;;;;;;5077005;28;20442;-76
2021/07/27 03:21:13;;;;;;;36.00;21.80;;;;;;;;;;5076978;28;20802;-76
2021/07/27 03:23:40;;;;;;;27.63;21.37;;;;;;;;;;5076886;28;20445;-76
2021/07/27 03:26:07;;;;;;;29.40;21.10;;;;;;;;;;5076894;28;20450;-75
2021/07/27 03:28:35;;;;;;;32.80;21.60;;;;;;;;;;5077111;28;20452;-76
2021/07/27 03:31:02;;;;;;;30.90;21.10;;;;;;;;;;5077105;28;20839;-75
2021/07/27 03:33:29;;;;;;;27.70;21.50;;;;;;;;;;5076771;28;20449;-75
2021/07/27 03:35:57;;;;;;;29.67;22.33;;;;;;;;;;5076971;28;20470;-77
2021/07/27 03:38:25;;;;;;;30.27;21.73;;;;;;;;;;5083129;28;20483;-76
2021/07/27 03:40:52;;;;;;;39.87;26.00;;;;;;;;;;5079718;28;20436;-76
2021/07/27 03:43:19;;;;;;;31.47;22.33;;;;;;;;;;5092905;28;20434;-75
2021/07/27 03:45:46;;;;;;;30.90;23.63;;;;;;;;;;5076155;28;20452;-76
2021/07/27 03:48:14;;;;;;;36.10;23.53;;;;;;;;;;5076100;28;20443;-76
2021/07/27 03:50:41;;;;;;;38.77;22.63;;;;;;;;;;5094038;28;20456;-76
2021/07/27 03:53:13;;;;;;;36.27;23.30;;;;;;;;;;5096298;28;20441;-75
2021/07/27 03:55:41;;;;;;;31.87;23.10;;;;;;;;;;5096979;28;20463;-76
2021/07/27 03:58:08;;;;;;;36.50;21.80;;;;;;;;;;5096565;28;20438;-76
2021/07/27 04:00:35;;;;;;;31.83;21.57;;;;;;;;;;5095055;28;20448;-77
2021/07/27 04:03:03;;;;;;;27.70;21.00;;;;;;;;;;5077070;28;20531;-76
2021/07/27 04:05:30;;;;;;;34.00;23.27;;;;;;;;;;5076134;28;20448;-76
2021/07/27 04:07:57;;;;;;;33.43;21.50;;;;;;;;;;5075879;28;20452;-76
2021/07/27 04:10:26;;;;;;;32.80;23.90;;;;;;;;;;5075713;28;20447;-76
2021/07/27 04:12:53;;;;;;;27.37;21.00;;;;;;;;;;5076365;28;20532;-75
2021/07/27 04:15:20;;;;;;;27.53;21.80;;;;;;;;;;5076278;28;20568;-75
2021/07/27 04:17:47;;;;;;;40.77;22.87;;;;;;;;;;5075785;28;20441;-75
2021/07/27 04:20:15;;;;;;;27.63;20.70;;;;;;;;;;5075916;28;20452;-76
2021/07/27 04:22:42;;;;;;;35.83;21.87;;;;;;;;;;5075091;28;20825;-71
2021/07/27 04:25:10;;;;;;;28.87;22.70;;;;;;;;;;5073429;28;20452;-71
2021/07/27 04:27:39;;;;;;;31.80;22.57;;;;;;;;;;5065579;28;20446;-71
2021/07/27 04:30:06;;;;;;;31.43;22.70;;;;;;;;;;5055631;28;20527;-71
2021/07/27 04:32:34;;;;;;;30.13;22.80;;;;;;;;;;5055586;28;20448;-71
2021/07/27 04:35:01;;;;;;;32.37;24.60;;;;;;;;;;5055543;28;20495;-71
2021/07/27 04:37:28;;;;;;;33.27;24.53;;;;;;;;;;5055111;28;20447;-71
2021/07/27 04:39:55;;;;;;;37.20;26.73;;;;;;;;;;5055715;28;20438;-71
2021/07/27 04:42:22;;;;;;;39.30;27.13;;;;;;;;;;5055435;28;20532;-71
2021/07/27 04:44:51;;;;;;;47.50;28.43;;;;;;;;;;5054980;28;20450;-70
2021/07/27 04:47:18;;;;;;;39.57;29.70;;;;;;;;;;5055063;28;20488;-70
2021/07/27 04:49:45;;;;;;;43.60;28.20;;;;;;;;;;5055099;28;20939;-73
2021/07/27 04:52:15;;;;;;;43.53;29.37;;;;;;;;;;5055264;28;20516;-72
2021/07/27 04:54:50;;;;;;;39.00;27.60;;;;;;;;;;5091390;28;20979;-71
2021/07/27 04:57:18;;;;;;;42.17;28.57;;;;;;;;;;5076177;28;20456;-72
2021/07/27 04:59:45;;;;;;;50.47;30.70;;;;;;;;;;5057583;28;20461;-72
2021/07/27 05:02:14;;;;;;;40.77;28.63;;;;;;;;;;5066544;28;20448;-72
2021/07/27 05:04:41;;;;;;;41.40;28.90;;;;;;;;;;5074572;28;20450;-73
2021/07/27 05:07:08;;;;;;;45.80;32.33;;;;;;;;;;5074862;28;20942;-73
2021/07/27 05:09:35;;;;;;;37.90;29.23;;;;;;;;;;5075632;28;20441;-72
2021/07/27 05:12:02;;;;;;;43.80;29.57;;;;;;;;;;5073722;28;20452;-73
2021/07/27 05:14:30;;;;;;;41.17;29.50;;;;;;;;;;5074173;28;20950;-72
2021/07/27 05:16:57;;;;;;;40.73;29.73;;;;;;;;;;5075116;28;20478;-69
2021/07/27 05:19:26;;;;;;;41.60;29.37;;;;;;;;;;5074740;28;20441;-71
2021/07/27 05:21:54;;;;;;;41.43;30.77;;;;;;;;;;5073852;28;20455;-71
2021/07/27 05:24:22;;;;;;;39.23;28.97;;;;;;;;;;5074621;28;20847;-71
2021/07/27 05:26:49;;;;;;;40.43;28.67;;;;;;;;;;5074126;28;20451;-71
2021/07/27 05:29:17;;;;;;;42.77;29.90;;;;;;;;;;5075310;28;20770;-71
2021/07/27 05:31:45;;;;;;;40.93;28.93;;;;;;;;;;5074156;28;20930;-71
2021/07/27 05:34:12;;;;;;;45.20;30.33;;;;;;;;;;5073981;28;20445;-71
2021/07/27 05:36:40;;;;;;;40.50;30.07;;;;;;;;;;5074230;28;20496;-71
2021/07/27 05:39:07;;;;;;;48.73;33.90;;;;;;;;;;5074056;28;20465;-71
2021/07/27 05:41:36;;;;;;;45.80;32.37;;;;;;;;;;5073964;28;20457;-71
2021/07/27 05:44:03;;;;;;;43.70;31.60;;;;;;;;;;5074549;28;20469;-72
2021/07/27 05:46:30;;;;;;;46.57;32.30;;;;;;;;;;5074177;28;20453;-71
2021/07/27 05:48:58;;;;;;;47.00;33.90;;;;;;;;;;5074115;28;20440;-71
2021/07/27 05:51:26;;;;;;;51.43;33.57;;;;;;;;;;5074138;28;20506;-71
2021/07/27 05:53:55;;;;;;;43.40;31.30;;;;;;;;;;5073713;28;20987;-72
2021/07/27 05:56:22;;;;;;;45.07;32.97;;;;;;;;;;5073944;28;20488;-71
2021/07/27 05:58:49;;;;;;;45.50;33.20;;;;;;;;;;5074001;28;20793;-72
2021/07/27 06:01:16;;;;;;;52.10;32.93;;;;;;;;;;5073992;28;20446;-72
2021/07/27 06:03:44;;;;;;;46.73;34.77;;;;;;;;;;5074009;28;20535;-71
2021/07/27 06:06:11;;;;;;;52.13;36.80;;;;;;;;;;5073828;28;20451;-71
2021/07/27 06:08:38;;;;;;;46.63;32.27;;;;;;;;;;5073581;28;20503;-71
2021/07/27 06:11:07;;;;;;;49.17;33.13;;;;;;;;;;5073512;28;20889;-72
2021/07/27 06:13:34;;;;;;;49.83;35.07;;;;;;;;;;5073885;28;20441;-72
2021/07/27 06:16:05;;;;;;;47.20;33.50;;;;;;;;;;5073914;28;20473;-72
2021/07/27 06:18:32;;;;;;;51.07;34.10;;;;;;;;;;5073767;28;20552;-72
2021/07/27 06:21:00;;;;;;;48.67;34.73;;;;;;;;;;5073429;28;20978;-71
2021/07/27 06:23:27;;;;;;;52.27;34.87;;;;;;;;;;5073696;28;20522;-72
2021/07/27 06:25:54;;;;;;;48.70;34.33;;;;;;;;;;5073268;28;20463;-72
2021/07/27 06:28:23;;;;;;;50.43;34.93;;;;;;;;;;5073294;28;20935;-70
2021/07/27 06:30:50;;;;;;;59.37;38.47;;;;;;;;;;5073545;28;20444;-71
2021/07/27 06:33:17;;;;;;;51.23;38.80;;;;;;;;;;5073487;28;20440;-71
2021/07/27 06:35:45;;;;;;;45.97;34.70;;;;;;;;;;5073183;28;21009;-71
2021/07/27 06:38:12;;;;;;;49.83;36.00;;;;;;;;;;5073294;28;20979;-71
2021/07/27 06:40:39;;;;;;;52.80;37.37;;;;;;;;;;5073722;28;20955;-72
2021/07/27 06:43:06;;;;;;;44.80;34.97;;;;;;;;;;5073217;28;20943;-71
2021/07/27 06:45:35;;;;;;;47.73;36.90;;;;;;;;;;5073470;28;20454;-72
2021/07/27 06:48:02;;;;;;;43.73;32.30;;;;;;;;;;5076887;28;20457;-71
2021/07/27 06:50:29;;;;;;;48.80;35.37;;;;;;;;;;5077591;28;20444;-72
2021/07/27 06:52:56;;;;;;;48.37;35.47;;;;;;;;;;5077183;28;20482;-70
2021/07/27 06:55:23;;;;;;;45.10;35.27;;;;;;;;;;5077585;28;20442;-71
2021/07/27 06:57:51;;;;;;;48.30;36.77;;;;;;;;;;5077407;28;20451;-70
2021/07/27 07:00:18;;;;;;;55.60;36.87;;;;;;;;;;5077374;28;20524;-72
2021/07/27 07:02:47;;;;;;;42.83;34.83;;;;;;;;;;5076941;28;20449;-71
2021/07/27 07:05:14;;;;;;;55.73;36.70;;;;;;;;;;5077250;28;20439;-72
2021/07/27 07:07:41;;;;;;;47.93;35.53;;;;;;;;;;5077382;28;20446;-71
2021/07/27 07:10:09;;;;;;;48.03;34.77;;;;;;;;;;5076827;28;20534;-71
2021/07/27 07:12:36;;;;;;;43.73;34.07;;;;;;;;;;5076803;28;20451;-70
2021/07/27 07:15:04;;;;;;;37.77;31.53;;;;;;;;;;5077624;28;20444;-72
2021/07/27 07:17:31;;;;;;;35.87;31.80;;;;;;;;;;5076678;28;21015;-70
2021/07/27 07:19:59;;;;;;;41.17;31.50;;;;;;;;;;5077226;28;20443;-71
2021/07/27 07:22:29;;;;;;;37.17;31.60;;;;;;;;;;5076906;28;20438;-71
2021/07/27 07:24:56;;;;;;;38.40;29.23;;;;;;;;;;5076850;28;20450;-71
2021/07/27 07:27:23;;;;;;;36.23;30.90;;;;;;;;;;5076862;28;20452;-73
2021/07/27 07:29:53;;;;;;;36.83;30.60;;;;;;;;;;5076803;28;20447;-71
2021/07/27 07:32:20;;;;;;;36.80;32.17;;;;;;;;;;5076734;28;20438;-73
2021/07/27 07:34:48;;;;;;;31.93;28.40;;;;;;;;;;5076696;28;20442;-70
2021/07/27 07:37:16;;;;;;;37.73;30.97;;;;;;;;;;5076804;28;20919;-70
2021/07/27 07:39:44;;;;;;;35.60;29.47;;;;;;;;;;5076850;28;20475;-70
2021/07/27 07:42:11;;;;;;;40.40;30.87;;;;;;;;;;5076294;28;20451;-70
2021/07/27 07:44:38;;;;;;;31.10;27.60;;;;;;;;;;5076472;28;20538;-71
2021/07/27 07:47:06;;;;;;;32.60;28.70;;;;;;;;;;5076544;28;20454;-72
2021/07/27 07:49:33;;;;;;;33.40;27.30;;;;;;;;;;5076146;28;20492;-72
2021/07/27 07:52:01;;;;;;;32.43;25.40;;;;;;;;;;5076392;28;20446;-72
2021/07/27 07:54:32;;;;;;;27.00;24.30;;;;;;;;;;5076447;28;20842;-73
2021/07/27 07:56:59;;;;;;;30.83;24.50;;;;;;;;;;5076519;28;20945;-72
2021/07/27 07:59:26;;;;;;;30.87;23.20;;;;;;;;;;5075693;28;20486;-73
2021/07/27 08:01:55;;;;;;;27.80;23.70;;;;;;;;;;5076060;28;20470;-78
2021/07/27 08:04:24;;;;;;;26.83;21.50;;;;;;;;;;5080638;28;20438;-71
2021/07/27 08:06:52;;;;;;;23.20;19.17;;;;;;;;;;5089963;28;20477;-72
2021/07/27 08:09:19;;;;;;;24.10;21.53;;;;;;;;;;5096856;28;20439;-72
2021/07/27 08:11:47;;;;;;;26.87;21.33;;;;;;;;;;5084912;28;20443;-72
2021/07/27 08:14:15;;;;;;;26.07;20.20;;;;;;;;;;5076076;28;20498;-72
2021/07/27 08:16:42;;;;;;;26.20;17.27;;;;;;;;;;5085632;28;20542;-71
2021/07/27 08:19:09;;;;;;;19.67;17.67;;;;;;;;;;5095844;28;20450;-70
2021/07/27 08:21:36;;;;;;;22.13;19.20;;;;;;;;;;5095715;28;20457;-71
2021/07/27 08:24:04;;;;;;;20.17;17.50;;;;;;;;;;5095697;28;20443;-70
2021/07/27 08:26:31;;;;;;;21.80;19.10;;;;;;;;;;5075952;28;20945;-70
2021/07/27 08:28:59;;;;;;;23.50;18.00;;;;;;;;;;5075412;28;20448;-71
2021/07/27 08:31:26;;;;;;;20.07;17.97;;;;;;;;;;5075778;28;20446;-72
2021/07/27 08:33:53;;;;;;;21.00;18.70;;;;;;;;;;5075714;28;20447;-73
2021/07/27 08:36:21;;;;;;;26.70;20.07;;;;;;;;;;5075852;28;20490;-72
2021/07/27 08:38:48;;;;;;;17.83;15.90;;;;;;;;;;5075862;28;20540;-70
2021/07/27 08:41:17;;;;;;;20.97;17.27;;;;;;;;;;5075471;28;20447;-73
2021/07/27 08:43:45;;;;;;;18.33;15.80;;;;;;;;;;5075077;28;20543;-70
2021/07/27 08:46:16;;;;;;;21.63;17.83;;;;;;;;;;5075318;28;20537;-69
2021/07/27 08:48:44;;;;;;;18.47;16.50;;;;;;;;;;5075956;28;20500;-71
2021/07/27 08:51:12;;;;;;;21.97;16.43;;;;;;;;;;5076452;28;20448;-71
2021/07/27 08:53:40;;;;;;;18.53;16.50;;;;;;;;;;5075358;28;20439;-69
2021/07/27 08:56:07;;;;;;;18.33;16.50;;;;;;;;;;5074855;28;20449;-70
2021/07/27 08:58:34;;;;;;;19.87;17.90;;;;;;;;;;5075172;28;20444;-73
2021/07/27 09:01:01;;;;;;;22.33;19.10;;;;;;;;;;5075490;28;20447;-72
2021/07/27 09:03:30;;;;;;;19.20;17.30;;;;;;;;;;5074703;28;20440;-73
2021/07/27 09:06:07;;;;;;;19.37;17.43;;;;;;;;;;5075326;28;20451;-75
2021/07/27 09:08:34;;;;;;;18.30;16.50;;;;;;;;;;5075003;28;20452;-70
2021/07/27 09:11:02;;;;;;;18.40;16.57;;;;;;;;;;5074227;28;20447;-70
2021/07/27 09:13:33;;;;;;;19.37;17.30;;;;;;;;;;5074500;28;20490;-71
2021/07/27 09:16:00;;;;;;;20.23;17.50;;;;;;;;;;5074595;28;20436;-73
2021/07/27 09:18:29;;;;;;;18.20;16.17;;;;;;;;;;5075086;28;20773;-73
2021/07/27 09:21:00;;;;;;;18.70;16.20;;;;;;;;;;5074769;28;20445;-73
2021/07/27 09:23:27;;;;;;;16.70;15.07;;;;;;;;;;5075501;28;20560;-73
2021/07/27 09:25:55;;;;;;;21.90;16.17;;;;;;;;;;5074556;28;20452;-73
2021/07/27 09:28:23;;;;;;;19.57;14.77;;;;;;;;;;5074953;28;20446;-74
2021/07/27 09:30:51;;;;;;;16.83;14.90;;;;;;;;;;5074476;28;20437;-74
2021/07/27 09:33:19;;;;;;;16.60;15.10;;;;;;;;;;5074103;28;20532;-74
2021/07/27 09:35:46;;;;;;;17.37;15.67;;;;;;;;;;5074441;28;20439;-75
2021/07/27 09:38:16;;;;;;;18.73;15.30;;;;;;;;;;5074345;28;20493;-74
2021/07/27 09:40:50;;;;;;;20.70;15.50;;;;;;;;;;5074020;28;20441;-74
2021/07/27 09:43:18;;;;;;;26.63;16.80;;;;;;;;;;5073988;28;20446;-74
2021/07/27 09:45:47;;;;;;;15.97;14.27;;;;;;;;;;5074332;28;20540;-74
2021/07/27 09:48:15;;;;;;;15.63;13.90;;;;;;;;;;5074176;28;20475;-74
2021/07/27 09:50:43;;;;;;;17.40;15.20;;;;;;;;;;5074883;28;20487;-74
2021/07/27 09:53:10;;;;;;;14.30;12.80;;;;;;;;;;5074636;28;20536;-74
2021/07/27 09:55:39;;;;;;;18.23;13.60;;;;;;;;;;5073703;28;20442;-74
2021/07/27 09:58:07;;;;;;;16.77;13.53;;;;;;;;;;5073648;28;20547;-74
2021/07/27 10:00:43;;;;;;;18.20;14.53;;;;;;;;;;5073925;28;20452;-73
2021/07/27 10:03:12;;;;;;;17.70;14.90;;;;;;;;;;5074604;28;20508;-72
2021/07/27 10:05:39;;;;;;;18.80;14.97;;;;;;;;;;5073879;28;20858;-74
2021/07/27 10:08:07;;;;;;;15.73;13.50;;;;;;;;;;5073471;28;20457;-75
2021/07/27 10:10:35;;;;;;;15.63;14.13;;;;;;;;;;5073952;28;20526;-75
2021/07/27 10:13:11;;;;;;;14.87;13.47;;;;;;;;;;5073931;28;20437;-74
2021/07/27 10:15:42;;;;;;;17.33;14.73;;;;;;;;;;5073539;28;20463;-75
2021/07/27 10:18:09;;;;;;;15.70;14.27;;;;;;;;;;5073366;28;20478;-74
2021/07/27 10:20:37;;;;;;;13.67;12.10;;;;;;;;;;5073396;28;20441;-73
2021/07/27 10:23:17;;;;;;;16.33;13.13;;;;;;;;;;5073731;28;20439;-75
2021/07/27 10:25:54;;;;;;;15.53;13.40;;;;;;;;;;5073925;28;20447;-74
2021/07/27 10:28:24;;;;;;;18.40;13.50;;;;;;;;;;5073639;28;20443;-74
2021/07/27 10:31:02;;;;;;;14.73;13.07;;;;;;;;;;5074074;28;20427;-72
2021/07/27 10:33:29;;;;;;;13.87;12.50;;;;;;;;;;5073489;28;20976;-70
2021/07/27 10:35:56;;;;;;;13.00;11.83;;;;;;;;;;5073982;28;20448;-74
2021/07/27 10:38:24;;;;;;;14.70;13.20;;;;;;;;;;5073393;28;20494;-75
2021/07/27 10:40:51;;;;;;;15.87;12.07;;;;;;;;;;5073176;28;20478;-75
2021/07/27 10:43:26;;;;;;;13.90;10.90;;;;;;;;;;5073830;28;20457;-73
2021/07/27 10:45:59;;;;;;;13.83;11.67;;;;;;;;;;5073402;28;20517;-73
2021/07/27 10:48:33;;;;;;;11.10;10.10;;;;;;;;;;5074027;28;20441;-75
2021/07/27 10:51:02;;;;;;;13.10;11.80;;;;;;;;;;5073073;28;20436;-75
2021/07/27 10:53:32;;;;;;;15.17;11.83;;;;;;;;;;5073387;28;20446;-74
2021/07/27 10:56:02;;;;;;;12.70;11.40;;;;;;;;;;5073115;28;20467;-76
2021/07/27 10:58:31;;;;;;;13.20;11.80;;;;;;;;;;5072903;28;20478;-73
2021/07/27 11:01:07;;;;;;;13.17;11.73;;;;;;;;;;5073326;28;20785;-74
2021/07/27 11:03:35;;;;;;;12.60;11.30;;;;;;;;;;5073059;28;20429;-75
2021/07/27 11:06:02;;;;;;;13.77;10.53;;;;;;;;;;5073276;28;20488;-74
2021/07/27 11:08:29;;;;;;;10.27;9.30;;;;;;;;;;5073712;28;20461;-75
2021/07/27 11:11:06;;;;;;;11.13;10.00;;;;;;;;;;5073237;28;20837;-75
2021/07/27 11:13:35;;;;;;;10.60;9.50;;;;;;;;;;5072931;28;20931;-75
2021/07/27 11:16:02;;;;;;;11.30;10.17;;;;;;;;;;5072808;28;20487;-75
2021/07/27 11:18:30;;;;;;;13.40;10.50;;;;;;;;;;5072742;28;20478;-74
2021/07/27 11:20:57;;;;;;;11.97;9.33;;;;;;;;;;5073117;28;20535;-75
2021/07/27 11:23:25;;;;;;;10.20;9.30;;;;;;;;;;5073065;28;20469;-77
2021/07/27 11:25:53;;;;;;;11.00;10.00;;;;;;;;;;5073133;28;20806;-76
2021/07/27 11:28:20;;;;;;;11.77;10.30;;;;;;;;;;5073380;28;20481;-76
2021/07/27 11:30:49;;;;;;;10.57;9.47;;;;;;;;;;5072746;28;20445;-77
2021/07/27 11:33:18;;;;;;;10.63;9.77;;;;;;;;;;5074390;28;20450;-77
2021/07/27 11:35:46;;;;;;;10.73;9.63;;;;;;;;;;5076678;28;20492;-74
2021/07/27 11:38:20;;;;;;;13.73;9.27;;;;;;;;;;5076145;28;20499;-74
2021/07/27 11:40:48;;;;;;;11.13;10.03;;;;;;;;;;5076283;28;20440;-77
2021/07/27 11:43:17;;;;;;;11.57;10.37;;;;;;;;;;5076607;28;20446;-76
2021/07/27 11:45:45;;;;;;;14.90;9.97;;;;;;;;;;5076221;28;20447;-77
2021/07/27 11:48:14;;;;;;;11.40;10.20;;;;;;;;;;5077035;28;20437;-76
2021/07/27 11:50:43;;;;;;;15.23;9.47;;;;;;;;;;5076206;28;20494;-76
2021/07/27 11:53:11;;;;;;;9.60;8.70;;;;;;;;;;5076729;28;20440;-76
2021/07/27 11:55:38;;;;;;;11.40;10.20;;;;;;;;;;5076054;28;20454;-74
2021/07/27 11:58:06;;;;;;;10.20;9.27;;;;;;;;;;5075959;28;20475;-77
2021/07/27 12:00:34;;;;;;;9.57;8.70;;;;;;;;;;5075952;28;20437;-76
2021/07/27 12:03:02;;;;;;;10.27;9.20;;;;;;;;;;5076205;28;20444;-76
2021/07/27 12:05:36;;;;;;;12.03;8.43;;;;;;;;;;5075933;28;20536;-76
2021/07/27 12:08:04;;;;;;;15.47;9.83;;;;;;;;;;5075841;28;20460;-77
2021/07/27 12:10:31;;;;;;;12.60;9.43;;;;;;;;;;5076710;28;20437;-77
2021/07/27 12:12:58;;;;;;;12.67;9.07;;;;;;;;;;5075653;28;20452;-75
2021/07/27 12:15:25;;;;;;;10.60;9.60;;;;;;;;;;5076050;28;20469;-76
2021/07/27 12:17:53;;;;;;;10.93;9.80;;;;;;;;;;5075849;28;20480;-75
2021/07/27 12:20:20;;;;;;;11.40;9.63;;;;;;;;;;5075617;28;20448;-76
2021/07/27 12:22:48;;;;;;;11.63;10.13;;;;;;;;;;5075622;28;20536;-74
2021/07/27 12:25:16;;;;;;;12.00;10.80;;;;;;;;;;5075810;28;20797;-76
2021/07/27 12:27:43;;;;;;;11.67;9.63;;;;;;;;;;5075946;28;20531;-75
2021/07/27 12:30:11;;;;;;;11.60;10.33;;;;;;;;;;5075408;28;20480;-75
2021/07/27 12:32:38;;;;;;;31.47;12.23;;;;;;;;;;5076229;28;20467;-73
2021/07/27 12:35:06;;;;;;;26.73;11.73;;;;;;;;;;5075325;28;20484;-71
2021/07/27 12:37:35;;;;;;;10.67;9.63;;;;;;;;;;5075617;28;20567;-74
2021/07/27 12:40:04;;;;;;;19.70;14.53;;;;;;;;;;5076016;28;20432;-75
2021/07/27 12:42:31;;;;;;;11.00;9.80;;;;;;;;;;5075938;28;20450;-74
2021/07/27 12:44:59;;;;;;;11.87;9.50;;;;;;;;;;5074329;28;20797;-75
2021/07/27 12:47:27;;;;;;;13.33;10.37;;;;;;;;;;5075356;28;20485;-75
2021/07/27 12:49:54;;;;;;;11.87;10.67;;;;;;;;;;5075346;28;20447;-75
2021/07/27 12:52:21;;;;;;;13.73;10.37;;;;;;;;;;5074826;28;20447;-69
2021/07/27 12:54:48;;;;;;;11.30;10.20;;;;;;;;;;5075078;28;20436;-74
2021/07/27 12:57:17;;;;;;;12.30;11.00;;;;;;;;;;5074536;28;20453;-76
2021/07/27 12:59:46;;;;;;;12.17;11.00;;;;;;;;;;5075123;28;20804;-68
2021/07/27 13:02:13;;;;;;;13.50;12.20;;;;;;;;;;5075154;28;20448;-77
2021/07/27 13:04:40;;;;;;;12.97;11.70;;;;;;;;;;5074961;28;20478;-72
2021/07/27 13:07:08;;;;;;;14.20;12.73;;;;;;;;;;5074763;28;20508;-73
2021/07/27 13:09:36;;;;;;;14.63;13.17;;;;;;;;;;5074623;28;20527;-80
2021/07/27 13:12:04;;;;;;;13.97;12.57;;;;;;;;;;5074932;28;20468;-73
2021/07/27 13:14:32;;;;;;;13.57;11.97;;;;;;;;;;5074726;28;20864;-74
2021/07/27 13:17:02;;;;;;;11.27;10.17;;;;;;;;;;5074920;28;20543;-75
2021/07/27 13:19:29;;;;;;;13.23;11.83;;;;;;;;;;5074920;28;20567;-74
2021/07/27 13:21:57;;;;;;;14.60;12.70;;;;;;;;;;5074748;28;20447;-72
2021/07/27 13:24:24;;;;;;;13.60;12.20;;;;;;;;;;5065498;28;20488;-73
2021/07/27 13:26:51;;;;;;;9.40;8.47;;;;;;;;;;5054523;28;20524;-72
2021/07/27 13:29:19;;;;;;;9.90;8.90;;;;;;;;;;5054843;28;20867;-73
2021/07/27 13:31:47;;;;;;;7.70;7.00;;;;;;;;;;5054468;28;20534;-72
2021/07/27 13:34:17;;;;;;;7.23;6.67;;;;;;;;;;5054621;28;20542;-73
2021/07/27 13:36:44;;;;;;;7.60;6.90;;;;;;;;;;5054281;28;20455;-73
2021/07/27 13:39:11;;;;;;;9.53;6.93;;;;;;;;;;5054257;28;20484;-73
2021/07/27 13:41:38;;;;;;;5.77;5.27;;;;;;;;;;5054021;28;20946;-73
2021/07/27 13:44:06;;;;;;;5.87;5.37;;;;;;;;;;5053741;28;20445;-74
2021/07/27 13:46:33;;;;;;;5.73;5.23;;;;;;;;;;5054632;28;20482;-74
2021/07/27 13:49:02;;;;;;;6.30;5.43;;;;;;;;;;5054821;28;20438;-74
2021/07/27 13:51:36;;;;;;;7.40;5.57;;;;;;;;;;5054714;28;20520;-76
2021/07/27 13:54:03;;;;;;;5.70;5.30;;;;;;;;;;5069827;28;20467;-75
2021/07/27 13:56:30;;;;;;;5.10;4.60;;;;;;;;;;5073385;28;20978;-75
2021/07/27 13:58:59;;;;;;;4.77;4.37;;;;;;;;;;5073887;28;20860;-74
2021/07/27 14:01:27;;;;;;;5.77;5.23;;;;;;;;;;5073573;28;20453;-76
2021/07/27 14:03:54;;;;;;;5.50;4.93;;;;;;;;;;5073900;28;20497;-76
2021/07/27 14:06:22;;;;;;;4.83;4.40;;;;;;;;;;5073870;28;21008;-75
2021/07/27 14:08:50;;;;;;;7.33;6.30;;;;;;;;;;5074008;28;20485;-75
2021/07/27 14:11:17;;;;;;;7.10;6.50;;;;;;;;;;5073630;28;20477;-75
2021/07/27 14:13:44;;;;;;;6.83;6.20;;;;;;;;;;5073511;28;20445;-76
2021/07/27 14:16:12;;;;;;;7.07;6.47;;;;;;;;;;5073479;28;20441;-75
2021/07/27 14:18:39;;;;;;;7.40;6.50;;;;;;;;;;5073739;28;20474;-75
2021/07/27 14:21:06;;;;;;;7.70;6.90;;;;;;;;;;5073384;28;20449;-75
2021/07/27 14:23:35;;;;;;;7.37;6.50;;;;;;;;;;5073949;28;20445;-76
2021/07/27 14:26:02;;;;;;;7.73;7.07;;;;;;;;;;5073367;28;20445;-76
2021/07/27 14:28:30;;;;;;;6.83;6.30;;;;;;;;;;5073984;28;20450;-76
2021/07/27 14:30:57;;;;;;;9.57;7.30;;;;;;;;;;5073536;28;20460;-76
2021/07/27 14:33:24;;;;;;;9.70;8.90;;;;;;;;;;5073621;28;20867;-76
2021/07/27 14:35:52;;;;;;;8.87;7.97;;;;;;;;;;5073491;28;20450;-76
2021/07/27 14:38:19;;;;;;;8.70;8.00;;;;;;;;;;5073519;28;20507;-75
2021/07/27 14:40:48;;;;;;;8.73;7.93;;;;;;;;;;5073541;28;20480;-76
2021/07/27 14:43:15;;;;;;;9.07;8.37;;;;;;;;;;5073192;28;21001;-76
2021/07/27 14:45:43;;;;;;;10.10;9.00;;;;;;;;;;5073210;28;20448;-76